Time;durP1;ratioP1;P1;durP2;ratioP2;P2;SDS_P1;SDS_P2;PMS_P1;PMS_P2;Temp;Humidity;BMP_temperature;BMP_pressure;BME280_temperature;BME280_humidity;BME280_pressure;Samples;Min_cycle;Max_cycle;Signal;HPM_P1;HPM_P2
2022/01/20 00:02:05;;;;;;;;;;;4.00;99.90;;;;;;6212208;23;20313;-71
2022/01/20 00:04:47;;;;;;;;;;;4.00;99.90;;;;;;6214253;23;20340;-72
2022/01/20 00:26:05;;;;;;;;;;;4.00;99.90;;;;;;6214016;23;19900;-71
2022/01/20 00:28:43;;;;;;;;;;;3.90;99.90;;;;;;6213076;23;19904;-71
2022/01/20 00:33:52;;;;;;;;;;;3.80;99.90;;;;;;6213345;23;19990;-70
2022/01/20 00:39:03;;;;;;;;;;;3.70;99.90;;;;;;6214005;23;19909;-72
2022/01/20 00:41:28;;;;;;;;;;;3.70;99.90;;;;;;6212848;23;19982;-70
2022/01/20 00:43:54;;;;;;;;;;;3.70;99.90;;;;;;6214336;23;20065;-71
2022/01/20 00:46:19;;;;;;;;;;;3.70;99.90;;;;;;6185745;23;19900;-70
2022/01/20 00:48:45;;;;;;;;;;;3.70;99.90;;;;;;6214418;23;20312;-70
2022/01/20 00:51:11;;;;;;;;;;;3.60;99.90;;;;;;6214285;23;19923;-70
2022/01/20 00:53:43;;;;;;;;;;;3.50;99.90;;;;;;6212648;23;19908;-70
2022/01/20 00:56:10;;;;;;;;;;;3.60;99.90;;;;;;6212034;23;19907;-71
2022/01/20 00:58:36;;;;;;;;;;;3.60;99.90;;;;;;6213615;23;19900;-72
2022/01/20 01:01:01;;;;;;;;;;;3.70;99.90;;;;;;6211705;23;19965;-72
2022/01/20 01:03:27;;;;;;;;;;;3.90;99.90;;;;;;6214088;23;20328;-71
2022/01/20 01:06:14;;;;;;;;;;;4.00;99.90;;;;;;6212165;23;19967;-70
2022/01/20 01:08:41;;;;;;;;;;;4.00;99.90;;;;;;6213055;23;19900;-70
2022/01/20 01:11:06;;;;;;;;;;;4.00;99.90;;;;;;6213407;23;19907;-71
2022/01/20 01:13:32;;;;;;;;;;;3.70;99.90;;;;;;6212319;23;19958;-72
2022/01/20 01:15:58;;;;;;;;;;;3.80;99.90;;;;;;6215047;23;19935;-71
2022/01/20 01:21:15;;;;;;;;;;;3.90;99.90;;;;;;6215990;23;19911;-71
2022/01/20 01:23:42;;;;;;;;;;;4.00;99.90;;;;;;6218645;23;19954;-70
2022/01/20 01:26:12;;;;;;;;;;;4.10;99.90;;;;;;6216991;23;19962;-70
2022/01/20 01:28:38;;;;;;;;;;;4.20;99.90;;;;;;6215565;23;19900;-71
2022/01/20 01:33:34;;;;;;;;;;;4.50;99.90;;;;;;6215651;23;20342;-71
2022/01/20 01:36:02;;;;;;;;;;;4.60;99.90;;;;;;6217446;23;19900;-72
2022/01/20 01:38:37;;;;;;;;;;;4.70;99.90;;;;;;6219606;23;19931;-70
2022/01/20 01:41:09;;;;;;;;;;;4.70;99.90;;;;;;6217322;23;19900;-71
2022/01/20 01:43:36;;;;;;;;;;;4.70;99.90;;;;;;6215895;23;19911;-71
2022/01/20 01:46:02;;;;;;;;;;;4.70;99.90;;;;;;6216592;23;20230;-71
2022/01/20 01:48:28;;;;;;;;;;;4.80;99.90;;;;;;6218566;23;19904;-71
2022/01/20 01:50:54;;;;;;;;;;;4.80;99.90;;;;;;6219443;23;20235;-70
2022/01/20 01:53:20;;;;;;;;;;;4.70;99.90;;;;;;6215787;23;19911;-71
2022/01/20 01:55:46;;;;;;;;;;;4.40;99.90;;;;;;6213919;23;19976;-70
2022/01/20 01:58:12;;;;;;;;;;;4.40;99.90;;;;;;6214842;23;19911;-71
2022/01/20 02:00:37;;;;;;;;;;;4.20;99.90;;;;;;6216299;23;20367;-71
2022/01/20 02:03:03;;;;;;;;;;;4.30;99.90;;;;;;6214321;23;19986;-70
2022/01/20 02:05:30;;;;;;;;;;;4.20;99.90;;;;;;6215215;23;20214;-71
2022/01/20 02:18:58;;;;;;;;;;;4.20;99.90;;;;;;6215000;23;19907;-71
2022/01/20 02:21:23;;;;;;;;;;;4.20;99.90;;;;;;6214720;23;19928;-71
2022/01/20 02:23:49;;;;;;;;;;;4.20;99.90;;;;;;6214119;23;19900;-70
2022/01/20 02:26:15;;;;;;;;;;;4.20;99.90;;;;;;6214736;23;19974;-70
2022/01/20 02:28:41;;;;;;;;;;;4.10;99.90;;;;;;6214905;23;19907;-71
2022/01/20 02:31:07;;;;;;;;;;;4.10;99.90;;;;;;6215167;23;19900;-70
2022/01/20 02:33:33;;;;;;;;;;;4.10;99.90;;;;;;6214371;23;19911;-69
2022/01/20 02:36:03;;;;;;;;;;;4.10;99.90;;;;;;6214250;23;19929;-71
2022/01/20 02:38:42;;;;;;;;;;;4.10;99.90;;;;;;6213363;23;19912;-70
2022/01/20 02:46:37;;;;;;;;;;;3.90;99.90;;;;;;6214214;23;19954;-71
2022/01/20 02:49:03;;;;;;;;;;;4.00;99.90;;;;;;6213770;23;20317;-70
2022/01/20 02:51:29;;;;;;;;;;;3.80;99.90;;;;;;6214726;23;19969;-70
2022/01/20 02:53:55;;;;;;;;;;;3.70;99.90;;;;;;6215906;23;19962;-69
2022/01/20 02:56:20;;;;;;;;;;;3.80;99.90;;;;;;6215575;23;19907;-70
2022/01/20 02:58:47;;;;;;;;;;;3.80;99.90;;;;;;6215480;23;19907;-70
2022/01/20 03:01:13;;;;;;;;;;;3.80;99.90;;;;;;6213947;23;19987;-70
2022/01/20 03:03:38;;;;;;;;;;;3.70;99.90;;;;;;6214847;23;20336;-70
2022/01/20 03:06:04;;;;;;;;;;;3.50;99.90;;;;;;6214500;23;19904;-71
2022/01/20 03:08:30;;;;;;;;;;;3.40;99.90;;;;;;6213899;23;20312;-70
2022/01/20 03:10:56;;;;;;;;;;;3.30;99.90;;;;;;6214756;23;19900;-70
2022/01/20 03:13:22;;;;;;;;;;;3.40;99.90;;;;;;6213612;23;19907;-69
2022/01/20 03:15:47;;;;;;;;;;;3.50;99.90;;;;;;6214074;23;19900;-69
2022/01/20 03:18:13;;;;;;;;;;;3.40;99.90;;;;;;6214791;23;19923;-70
2022/01/20 03:20:38;;;;;;;;;;;3.30;99.90;;;;;;6213737;23;20181;-69
2022/01/20 03:23:04;;;;;;;;;;;3.30;99.90;;;;;;6215017;23;19900;-70
2022/01/20 03:25:30;;;;;;;;;;;3.30;99.90;;;;;;6215145;23;20210;-71
2022/01/20 03:27:56;;;;;;;;;;;3.30;99.90;;;;;;6214555;23;20328;-71
2022/01/20 03:30:23;;;;;;;;;;;3.30;99.90;;;;;;6213115;23;19900;-70
2022/01/20 03:32:49;;;;;;;;;;;3.20;99.90;;;;;;6215994;23;19919;-70
2022/01/20 03:35:14;;;;;;;;;;;3.10;99.90;;;;;;6215597;23;19900;-71
2022/01/20 03:37:40;;;;;;;;;;;3.20;99.90;;;;;;6213163;23;19899;-69
2022/01/20 03:40:06;;;;;;;;;;;3.20;99.90;;;;;;6215113;23;19900;-71
2022/01/20 03:42:35;;;;;;;;;;;3.20;99.90;;;;;;6215436;23;19931;-70
2022/01/20 03:45:01;;;;;;;;;;;3.20;99.90;;;;;;6214234;23;19912;-72
2022/01/20 03:47:26;;;;;;;;;;;3.20;99.90;;;;;;6215304;23;19900;-70
2022/01/20 03:52:18;;;;;;;;;;;3.00;99.90;;;;;;6215604;23;19907;-71
2022/01/20 03:54:44;;;;;;;;;;;2.90;99.90;;;;;;6214547;23;20276;-71
2022/01/20 03:57:09;;;;;;;;;;;2.90;99.90;;;;;;6215159;23;19949;-71
2022/01/20 03:59:35;;;;;;;;;;;3.00;99.90;;;;;;6213587;23;19900;-71
2022/01/20 04:02:01;;;;;;;;;;;3.00;99.90;;;;;;6213504;23;19900;-71
2022/01/20 04:04:26;;;;;;;;;;;3.00;99.90;;;;;;6214604;23;19934;-70
2022/01/20 04:06:52;;;;;;;;;;;2.90;99.90;;;;;;6213633;23;19903;-70
2022/01/20 04:09:17;;;;;;;;;;;3.00;99.90;;;;;;6215150;23;19900;-69
2022/01/20 04:11:43;;;;;;;;;;;3.00;99.90;;;;;;6214385;23;19907;-70
2022/01/20 04:14:09;;;;;;;;;;;3.10;99.90;;;;;;6215244;23;19908;-70
2022/01/20 04:16:49;;;;;;;;;;;3.00;99.90;;;;;;6216107;23;19900;-70
2022/01/20 04:19:15;;;;;;;;;;;3.10;99.90;;;;;;6215823;23;19900;-71
2022/01/20 04:21:42;;;;;;;;;;;3.10;99.90;;;;;;6214547;23;19979;-72
2022/01/20 04:24:08;;;;;;;;;;;3.00;99.90;;;;;;6215098;23;20279;-71
2022/01/20 04:26:35;;;;;;;;;;;3.00;99.90;;;;;;6213686;23;19923;-70
2022/01/20 04:29:01;;;;;;;;;;;2.90;99.90;;;;;;6214769;23;19907;-70
2022/01/20 04:31:28;;;;;;;;;;;2.90;99.90;;;;;;6213766;23;19934;-70
2022/01/20 04:33:56;;;;;;;;;;;2.80;99.90;;;;;;6211620;23;20327;-70
2022/01/20 04:36:23;;;;;;;;;;;2.80;99.90;;;;;;6213647;23;19958;-70
2022/01/20 04:38:49;;;;;;;;;;;2.80;99.90;;;;;;6214810;23;20353;-70
2022/01/20 04:41:14;;;;;;;;;;;2.70;99.90;;;;;;6212825;23;19904;-70
2022/01/20 04:43:40;;;;;;;;;;;2.70;99.90;;;;;;6212879;23;20027;-69
2022/01/20 04:46:21;;;;;;;;;;;2.70;99.90;;;;;;6211011;23;19911;-70
2022/01/20 04:49:09;;;;;;;;;;;2.70;99.90;;;;;;6212881;23;19899;-70
2022/01/20 04:59:38;;;;;;;;;;;3.00;99.90;;;;;;6211543;23;20010;-71
2022/01/20 05:02:04;;;;;;;;;;;3.00;99.90;;;;;;6210965;23;19900;-70
2022/01/20 05:04:29;;;;;;;;;;;3.10;99.90;;;;;;6210748;23;19900;-70
2022/01/20 05:06:57;;;;;;;;;;;3.10;99.90;;;;;;6210230;23;20213;-70
2022/01/20 05:09:23;;;;;;;;;;;3.10;99.90;;;;;;6211332;23;19904;-72
2022/01/20 05:12:03;;;;;;;;;;;3.20;99.90;;;;;;6210162;23;20327;-71
2022/01/20 05:14:28;;;;;;;;;;;3.30;99.90;;;;;;6211056;23;20041;-70
2022/01/20 05:16:55;;;;;;;;;;;3.30;99.90;;;;;;6211558;23;19994;-71
2022/01/20 05:19:22;;;;;;;;;;;3.20;99.90;;;;;;6209135;23;19911;-69
2022/01/20 05:21:47;;;;;;;;;;;3.30;99.90;;;;;;6210296;23;19900;-70
2022/01/20 05:24:13;;;;;;;;;;;3.30;99.90;;;;;;6212406;23;19987;-69
2022/01/20 05:26:38;;;;;;;;;;;3.40;99.90;;;;;;6210200;23;19988;-70
2022/01/20 05:29:04;;;;;;;;;;;3.50;99.90;;;;;;6210500;23;19930;-70
2022/01/20 05:31:29;;;;;;;;;;;3.50;99.90;;;;;;6211465;23;19900;-70
2022/01/20 05:33:55;;;;;;;;;;;3.60;99.90;;;;;;6209771;23;19907;-69
2022/01/20 05:36:20;;;;;;;;;;;3.70;99.90;;;;;;6209113;23;19923;-70
2022/01/20 05:38:46;;;;;;;;;;;3.80;99.90;;;;;;6212193;23;19907;-69
2022/01/20 05:41:12;;;;;;;;;;;3.80;99.90;;;;;;6209976;23;20356;-71
2022/01/20 05:43:38;;;;;;;;;;;3.80;99.90;;;;;;6160749;23;1211448;-71
2022/01/20 05:46:04;;;;;;;;;;;3.80;99.90;;;;;;6213002;23;20018;-70
2022/01/20 05:48:35;;;;;;;;;;;3.80;99.90;;;;;;6213667;23;19899;-70
2022/01/20 05:51:01;;;;;;;;;;;3.80;99.90;;;;;;6213204;23;19900;-70
2022/01/20 05:53:27;;;;;;;;;;;3.80;99.90;;;;;;6212753;23;19954;-70
2022/01/20 05:55:53;;;;;;;;;;;3.80;99.90;;;;;;6213460;23;19908;-70
2022/01/20 05:58:21;;;;;;;;;;;3.50;99.90;;;;;;6213386;23;19904;-69
2022/01/20 06:00:47;;;;;;;;;;;3.40;99.90;;;;;;6212418;23;19907;-71
2022/01/20 06:05:57;;;;;;;;;;;3.40;99.90;;;;;;6212653;23;19923;-70
2022/01/20 06:08:24;;;;;;;;;;;3.40;99.90;;;;;;6212607;23;19900;-69
2022/01/20 06:10:49;;;;;;;;;;;3.30;99.90;;;;;;6212984;23;19907;-70
2022/01/20 06:13:15;;;;;;;;;;;3.30;99.90;;;;;;6213126;23;20264;-69
2022/01/20 06:15:41;;;;;;;;;;;3.30;99.90;;;;;;6214193;23;20252;-70
2022/01/20 06:18:06;;;;;;;;;;;3.30;99.90;;;;;;6215443;23;19900;-70
2022/01/20 06:20:32;;;;;;;;;;;3.20;99.90;;;;;;6214700;23;19979;-70
2022/01/20 06:22:58;;;;;;;;;;;3.20;99.90;;;;;;6215024;23;19906;-71
2022/01/20 06:25:24;;;;;;;;;;;3.10;99.90;;;;;;6215230;23;19900;-71
2022/01/20 06:27:50;;;;;;;;;;;3.20;99.90;;;;;;6217799;23;19900;-71
2022/01/20 06:30:15;;;;;;;;;;;3.20;99.90;;;;;;6222835;23;19916;-71
2022/01/20 06:32:41;;;;;;;;;;;3.10;99.90;;;;;;6222294;23;19930;-71
2022/01/20 06:35:07;;;;;;;;;;;3.10;99.90;;;;;;6222895;23;19904;-70
2022/01/20 06:37:34;;;;;;;;;;;3.20;99.90;;;;;;6220475;23;19899;-70
2022/01/20 06:39:59;;;;;;;;;;;3.10;99.90;;;;;;6219587;23;19935;-70
2022/01/20 06:42:25;;;;;;;;;;;3.00;99.90;;;;;;6218585;23;19908;-71
2022/01/20 06:44:50;;;;;;;;;;;3.00;99.90;;;;;;6217594;23;19919;-71
2022/01/20 06:47:16;;;;;;;;;;;3.00;99.90;;;;;;6216600;23;20259;-69
2022/01/20 06:49:42;;;;;;;;;;;3.00;99.90;;;;;;6219012;23;19900;-71
2022/01/20 06:52:07;;;;;;;;;;;2.70;99.90;;;;;;6219352;23;19903;-71
2022/01/20 06:54:34;;;;;;;;;;;2.70;99.90;;;;;;6217468;23;19915;-71
2022/01/20 06:57:00;;;;;;;;;;;2.70;99.90;;;;;;6219797;23;19911;-71
2022/01/20 06:59:25;;;;;;;;;;;2.70;99.90;;;;;;6218122;23;19900;-70
2022/01/20 07:01:51;;;;;;;;;;;2.70;99.90;;;;;;6218476;23;19900;-71
2022/01/20 07:04:17;;;;;;;;;;;2.70;99.90;;;;;;6217783;23;19900;-71
2022/01/20 07:06:43;;;;;;;;;;;2.70;99.90;;;;;;6216943;23;19906;-71
2022/01/20 07:09:10;;;;;;;;;;;2.80;99.90;;;;;;6215836;23;20487;-69
2022/01/20 07:11:37;;;;;;;;;;;2.70;99.90;;;;;;6215623;23;19900;-70
2022/01/20 07:14:02;;;;;;;;;;;2.70;99.90;;;;;;6214702;23;19904;-70
2022/01/20 07:16:29;;;;;;;;;;;2.70;99.90;;;;;;6214389;23;20450;-71
2022/01/20 07:18:55;;;;;;;;;;;2.70;99.90;;;;;;6212885;23;19904;-70
2022/01/20 07:21:21;;;;;;;;;;;2.60;99.90;;;;;;6214218;23;19921;-69
2022/01/20 07:23:47;;;;;;;;;;;2.40;99.90;;;;;;6214279;23;19900;-70
2022/01/20 07:26:12;;;;;;;;;;;2.30;99.90;;;;;;6213837;23;20185;-70
2022/01/20 07:28:38;;;;;;;;;;;2.20;99.90;;;;;;6212940;23;19904;-70
2022/01/20 07:31:04;;;;;;;;;;;2.30;99.90;;;;;;6214003;23;19977;-70
2022/01/20 07:33:29;;;;;;;;;;;2.40;99.90;;;;;;6211732;23;19904;-70
2022/01/20 07:35:55;;;;;;;;;;;2.40;99.90;;;;;;6212125;23;20313;-71
2022/01/20 07:38:20;;;;;;;;;;;2.50;99.90;;;;;;6213490;23;19903;-73
2022/01/20 07:40:46;;;;;;;;;;;2.50;99.90;;;;;;6211865;23;19900;-71
2022/01/20 07:43:12;;;;;;;;;;;2.40;99.90;;;;;;6212525;23;19919;-71
2022/01/20 07:45:37;;;;;;;;;;;2.30;99.90;;;;;;6210553;23;19900;-70
2022/01/20 07:48:03;;;;;;;;;;;2.40;99.90;;;;;;6211840;23;19950;-71
2022/01/20 07:50:29;;;;;;;;;;;2.50;99.90;;;;;;6212716;23;19900;-71
2022/01/20 07:52:54;;;;;;;;;;;2.40;99.90;;;;;;6212753;23;20495;-73
2022/01/20 07:55:20;;;;;;;;;;;2.30;99.90;;;;;;6213006;23;19911;-72
2022/01/20 07:57:46;;;;;;;;;;;2.20;99.90;;;;;;6212362;23;20276;-72
2022/01/20 08:00:11;;;;;;;;;;;2.10;99.90;;;;;;6212243;23;19900;-71
2022/01/20 08:02:37;;;;;;;;;;;2.00;99.90;;;;;;6211695;23;19900;-73
2022/01/20 08:05:03;;;;;;;;;;;2.10;99.90;;;;;;6214033;23;20030;-72
2022/01/20 08:07:29;;;;;;;;;;;2.10;99.90;;;;;;6211346;23;19900;-72
2022/01/20 08:09:57;;;;;;;;;;;2.20;99.90;;;;;;6214459;23;20264;-73
2022/01/20 08:12:27;;;;;;;;;;;2.10;99.90;;;;;;6214539;23;19907;-72
2022/01/20 08:14:53;;;;;;;;;;;2.10;99.90;;;;;;6213625;23;19904;-72
2022/01/20 08:17:19;;;;;;;;;;;2.20;99.90;;;;;;6214807;23;19900;-73
2022/01/20 08:19:45;;;;;;;;;;;2.20;99.90;;;;;;6212428;23;20309;-71
2022/01/20 08:22:10;;;;;;;;;;;2.20;99.90;;;;;;6212719;23;19918;-71
2022/01/20 08:24:36;;;;;;;;;;;2.30;99.90;;;;;;6214633;23;19966;-71
2022/01/20 08:27:02;;;;;;;;;;;2.30;99.90;;;;;;6212759;23;20323;-72
2022/01/20 08:29:28;;;;;;;;;;;2.30;99.90;;;;;;6213104;23;20316;-72
2022/01/20 08:31:53;;;;;;;;;;;2.40;99.90;;;;;;6212637;23;19900;-70
2022/01/20 08:34:19;;;;;;;;;;;2.30;99.90;;;;;;6211171;23;19903;-70
2022/01/20 08:36:45;;;;;;;;;;;2.30;99.90;;;;;;6210935;23;19908;-71
2022/01/20 08:41:48;;;;;;;;;;;2.40;99.90;;;;;;6212063;23;20014;-70
2022/01/20 08:44:14;;;;;;;;;;;2.20;99.90;;;;;;6210982;23;19991;-70
2022/01/20 08:46:42;;;;;;;;;;;2.10;99.90;;;;;;6210077;23;19911;-71
2022/01/20 08:49:07;;;;;;;;;;;2.20;99.90;;;;;;6212585;23;19900;-70
2022/01/20 08:51:33;;;;;;;;;;;2.30;99.90;;;;;;6210902;23;20326;-70
2022/01/20 08:53:58;;;;;;;;;;;2.50;99.90;;;;;;6213797;23;19908;-70
2022/01/20 08:56:24;;;;;;;;;;;2.50;99.90;;;;;;6207903;23;19904;-70
2022/01/20 08:58:50;;;;;;;;;;;2.40;99.90;;;;;;6207792;23;19900;-71
2022/01/20 09:01:15;;;;;;;;;;;2.50;99.90;;;;;;6207435;23;19906;-71
2022/01/20 09:03:42;;;;;;;;;;;2.30;99.90;;;;;;6212505;23;20228;-71
2022/01/20 09:06:08;;;;;;;;;;;2.30;99.90;;;;;;6211387;23;19958;-70
2022/01/20 09:08:34;;;;;;;;;;;2.20;99.90;;;;;;6211074;23;19990;-70
2022/01/20 09:11:01;;;;;;;;;;;2.30;99.90;;;;;;6212708;23;19932;-71
2022/01/20 09:16:11;;;;;;;;;;;2.30;99.90;;;;;;6212804;23;19950;-71
2022/01/20 09:18:36;;;;;;;;;;;2.50;99.90;;;;;;6212190;23;19942;-71
2022/01/20 09:21:02;;;;;;;;;;;2.50;99.90;;;;;;6210975;23;19906;-71
2022/01/20 09:23:28;;;;;;;;;;;2.60;99.90;;;;;;6212366;23;19903;-71
2022/01/20 09:25:53;;;;;;;;;;;2.50;99.90;;;;;;6211715;23;20281;-69
2022/01/20 09:28:20;;;;;;;;;;;2.50;99.90;;;;;;6211330;23;19951;-70
2022/01/20 09:30:46;;;;;;;;;;;2.60;99.90;;;;;;6212790;23;19904;-73
2022/01/20 09:33:16;;;;;;;;;;;2.70;99.90;;;;;;6209975;23;20307;-70
2022/01/20 09:35:42;;;;;;;;;;;2.70;99.90;;;;;;6211403;23;19904;-71
2022/01/20 09:38:08;;;;;;;;;;;2.90;99.90;;;;;;6212510;23;19900;-69
2022/01/20 09:40:35;;;;;;;;;;;3.00;99.90;;;;;;6210909;23;19934;-69
2022/01/20 09:43:00;;;;;;;;;;;3.20;99.90;;;;;;6211889;23;20368;-70
2022/01/20 09:45:26;;;;;;;;;;;3.30;99.90;;;;;;6212289;23;19912;-70
2022/01/20 09:47:53;;;;;;;;;;;3.40;99.90;;;;;;6211418;23;20297;-70
2022/01/20 09:50:20;;;;;;;;;;;3.50;99.90;;;;;;6212335;23;19900;-71
2022/01/20 09:52:46;;;;;;;;;;;3.60;99.90;;;;;;6214366;23;19986;-71
2022/01/20 09:55:12;;;;;;;;;;;3.70;99.90;;;;;;6212121;23;19923;-71
2022/01/20 09:57:38;;;;;;;;;;;3.80;99.90;;;;;;6214866;23;20228;-71
2022/01/20 10:00:08;;;;;;;;;;;3.90;99.90;;;;;;6212443;23;19900;-70
2022/01/20 10:02:34;;;;;;;;;;;3.90;99.90;;;;;;6215558;23;19951;-70
2022/01/20 10:05:01;;;;;;;;;;;4.00;99.90;;;;;;6215870;23;19900;-71
2022/01/20 10:07:33;;;;;;;;;;;4.10;99.90;;;;;;6211799;23;19907;-70
2022/01/20 10:09:59;;;;;;;;;;;4.20;99.90;;;;;;6217508;23;19985;-70
2022/01/20 10:12:27;;;;;;;;;;;4.30;99.90;;;;;;6210358;23;20309;-71
2022/01/20 10:14:57;;;;;;;;;;;4.30;99.90;;;;;;6212684;23;19969;-71
2022/01/20 10:17:24;;;;;;;;;;;4.40;99.90;;;;;;6216017;23;19911;-70
2022/01/20 10:19:55;;;;;;;;;;;4.50;99.90;;;;;;6215543;23;19903;-69
2022/01/20 10:22:23;;;;;;;;;;;4.60;99.90;;;;;;6217343;23;19900;-71
2022/01/20 10:25:02;;;;;;;;;;;4.70;99.90;;;;;;6215907;23;19970;-70
2022/01/20 10:27:27;;;;;;;;;;;4.80;99.90;;;;;;6214932;23;19900;-71
2022/01/20 10:29:54;;;;;;;;;;;5.00;99.90;;;;;;6215368;23;19926;-71
2022/01/20 10:32:20;;;;;;;;;;;5.00;99.90;;;;;;6215672;23;19954;-71
2022/01/20 10:34:45;;;;;;;;;;;5.20;99.90;;;;;;6214672;23;19907;-71
2022/01/20 10:37:17;;;;;;;;;;;5.30;99.90;;;;;;6215412;23;19900;-72
2022/01/20 10:39:44;;;;;;;;;;;5.30;99.90;;;;;;6214737;23;19900;-71
2022/01/20 10:42:11;;;;;;;;;;;5.40;99.90;;;;;;6215750;23;19900;-72
2022/01/20 10:44:44;;;;;;;;;;;5.50;99.90;;;;;;6216226;23;19912;-71
2022/01/20 10:47:29;;;;;;;;;;;5.70;99.90;;;;;;6214323;23;19978;-71
2022/01/20 10:49:55;;;;;;;;;;;5.80;99.90;;;;;;6215406;23;19910;-71
2022/01/20 10:52:22;;;;;;;;;;;6.00;99.90;;;;;;6215242;23;19948;-70
2022/01/20 10:54:50;;;;;;;;;;;6.10;99.90;;;;;;6214343;23;19907;-71
2022/01/20 10:57:16;;;;;;;;;;;6.20;99.90;;;;;;6215619;23;19904;-73
2022/01/20 10:59:49;;;;;;;;;;;6.20;99.90;;;;;;6214043;23;20288;-69
2022/01/20 11:02:16;;;;;;;;;;;6.30;99.90;;;;;;6214731;23;19978;-72
2022/01/20 11:04:42;;;;;;;;;;;6.30;99.90;;;;;;6214675;23;20262;-70
2022/01/20 11:07:09;;;;;;;;;;;6.40;99.90;;;;;;6213474;23;19971;-71
2022/01/20 11:09:38;;;;;;;;;;;6.50;99.90;;;;;;6211859;23;19900;-73
2022/01/20 11:12:04;;;;;;;;;;;6.40;99.90;;;;;;6211858;23;19903;-71
2022/01/20 11:14:31;;;;;;;;;;;6.50;99.90;;;;;;6212075;23;19977;-71
2022/01/20 11:16:57;;;;;;;;;;;6.50;99.90;;;;;;6214105;23;19927;-73
2022/01/20 11:19:23;;;;;;;;;;;6.30;99.90;;;;;;6214309;23;20289;-71
2022/01/20 11:21:49;;;;;;;;;;;6.30;99.90;;;;;;6213173;23;19915;-71
2022/01/20 11:24:18;;;;;;;;;;;6.30;99.90;;;;;;6213918;23;19900;-71
2022/01/20 11:26:48;;;;;;;;;;;6.30;99.90;;;;;;6213261;23;19904;-73
2022/01/20 11:29:14;;;;;;;;;;;6.30;99.90;;;;;;6214006;23;19900;-71
2022/01/20 11:31:39;;;;;;;;;;;6.20;99.90;;;;;;6213952;23;19951;-72
2022/01/20 11:34:15;;;;;;;;;;;6.20;99.90;;;;;;6212575;23;20212;-72
2022/01/20 11:36:41;;;;;;;;;;;6.20;99.90;;;;;;6213535;23;19904;-70
2022/01/20 11:39:06;;;;;;;;;;;6.30;99.90;;;;;;6212362;23;19974;-71
2022/01/20 11:41:40;;;;;;;;;;;6.40;99.90;;;;;;6213303;23;19979;-72
2022/01/20 11:44:07;;;;;;;;;;;6.50;99.90;;;;;;6214444;23;20312;-71
2022/01/20 11:46:38;;;;;;;;;;;6.40;99.90;;;;;;6212594;23;20284;-71
2022/01/20 11:49:09;;;;;;;;;;;6.50;99.90;;;;;;6213845;23;19900;-71
2022/01/20 11:51:53;;;;;;;;;;;6.40;99.90;;;;;;6211840;23;19899;-72
2022/01/20 11:54:30;;;;;;;;;;;6.40;99.90;;;;;;6213193;23;19904;-72
2022/01/20 11:57:09;;;;;;;;;;;6.40;99.90;;;;;;6214377;23;20332;-72
2022/01/20 11:59:42;;;;;;;;;;;6.60;99.90;;;;;;6212911;23;19993;-72
2022/01/20 12:02:08;;;;;;;;;;;6.60;99.90;;;;;;6214167;23;19900;-71
2022/01/20 12:04:37;;;;;;;;;;;6.60;99.90;;;;;;6214165;23;19900;-72
2022/01/20 12:07:03;;;;;;;;;;;6.70;99.90;;;;;;6213642;23;19900;-71
2022/01/20 12:09:30;;;;;;;;;;;6.70;99.90;;;;;;6214792;23;20360;-72
2022/01/20 12:11:56;;;;;;;;;;;6.90;99.90;;;;;;6213659;23;19965;-71
2022/01/20 12:14:32;;;;;;;;;;;6.80;99.90;;;;;;6214609;23;20325;-72
2022/01/20 12:17:01;;;;;;;;;;;6.70;99.90;;;;;;6217873;23;19904;-71
2022/01/20 12:19:27;;;;;;;;;;;6.80;99.90;;;;;;6217901;23;19903;-71
2022/01/20 12:21:52;;;;;;;;;;;6.80;99.90;;;;;;6216791;23;19935;-71
2022/01/20 12:24:19;;;;;;;;;;;6.80;99.90;;;;;;6214421;23;19907;-73
2022/01/20 12:26:45;;;;;;;;;;;6.80;99.90;;;;;;6216658;23;19938;-72
2022/01/20 12:29:10;;;;;;;;;;;6.80;99.90;;;;;;6217861;23;19904;-71
2022/01/20 12:31:52;;;;;;;;;;;6.80;99.90;;;;;;6218238;23;20324;-72
2022/01/20 12:34:19;;;;;;;;;;;6.80;99.90;;;;;;6218767;23;19907;-72
2022/01/20 12:36:58;;;;;;;;;;;6.80;99.90;;;;;;6219419;23;19908;-71
2022/01/20 12:39:28;;;;;;;;;;;6.70;99.90;;;;;;6219706;23;19955;-72
2022/01/20 12:41:58;;;;;;;;;;;6.60;99.90;;;;;;6219270;23;19926;-71
2022/01/20 12:44:35;;;;;;;;;;;6.60;99.90;;;;;;6218744;23;19986;-69
2022/01/20 12:47:00;;;;;;;;;;;6.50;99.90;;;;;;6211797;23;20234;-71
2022/01/20 12:49:26;;;;;;;;;;;6.50;99.90;;;;;;6213701;23;19928;-69
2022/01/20 12:51:53;;;;;;;;;;;6.50;99.90;;;;;;6213737;23;19915;-71
2022/01/20 12:54:27;;;;;;;;;;;6.50;99.90;;;;;;6212530;23;19949;-71
2022/01/20 12:56:56;;;;;;;;;;;6.70;99.90;;;;;;6213664;23;19995;-69
2022/01/20 12:59:25;;;;;;;;;;;6.80;99.90;;;;;;6213773;23;19979;-70
2022/01/20 13:01:51;;;;;;;;;;;6.90;99.90;;;;;;6212595;23;20233;-70
2022/01/20 13:04:20;;;;;;;;;;;7.00;99.90;;;;;;6213504;23;19900;-70
2022/01/20 13:06:51;;;;;;;;;;;7.00;99.90;;;;;;6211928;23;19911;-70
2022/01/20 13:09:18;;;;;;;;;;;7.00;99.90;;;;;;6214068;23;19900;-70
2022/01/20 13:11:59;;;;;;;;;;;6.90;99.90;;;;;;6212786;23;19926;-70
2022/01/20 13:14:38;;;;;;;;;;;6.80;99.90;;;;;;6212498;23;19958;-70
2022/01/20 13:17:05;;;;;;;;;;;6.80;99.90;;;;;;6213588;23;19908;-71
2022/01/20 13:19:32;;;;;;;;;;;6.70;99.90;;;;;;6214479;23;19900;-70
2022/01/20 13:21:58;;;;;;;;;;;6.70;99.90;;;;;;6213899;23;20213;-70
2022/01/20 13:24:25;;;;;;;;;;;6.60;99.90;;;;;;6212353;23;19906;-70
2022/01/20 13:26:52;;;;;;;;;;;6.60;99.90;;;;;;6211663;23;20232;-70
2022/01/20 13:29:18;;;;;;;;;;;6.60;99.90;;;;;;6215802;23;19975;-70
2022/01/20 13:31:44;;;;;;;;;;;6.70;99.90;;;;;;6213990;23;19931;-71
2022/01/20 13:34:20;;;;;;;;;;;6.70;99.90;;;;;;6212145;23;19947;-70
2022/01/20 13:36:49;;;;;;;;;;;6.70;99.90;;;;;;6215924;23;19908;-71
2022/01/20 13:39:26;;;;;;;;;;;6.80;99.90;;;;;;6215409;23;20336;-70
2022/01/20 13:42:02;;;;;;;;;;;6.70;99.90;;;;;;6214567;23;19948;-71
2022/01/20 13:47:13;;;;;;;;;;;6.90;99.90;;;;;;6214803;23;19957;-70
2022/01/20 13:49:49;;;;;;;;;;;6.80;99.90;;;;;;6215959;23;20279;-71
2022/01/20 13:52:18;;;;;;;;;;;6.80;99.90;;;;;;6215793;23;19914;-70
2022/01/20 13:54:53;;;;;;;;;;;6.80;99.90;;;;;;6214890;23;19946;-71
2022/01/20 13:57:20;;;;;;;;;;;6.70;99.90;;;;;;6215760;23;19954;-70
2022/01/20 13:59:53;;;;;;;;;;;6.50;99.90;;;;;;6215543;23;20284;-70
2022/01/20 14:02:20;;;;;;;;;;;6.30;99.90;;;;;;6216400;23;20268;-70
2022/01/20 14:04:45;;;;;;;;;;;6.30;99.90;;;;;;6215516;23;19900;-70
2022/01/20 14:07:11;;;;;;;;;;;6.30;99.90;;;;;;6214413;23;19920;-70
2022/01/20 14:09:37;;;;;;;;;;;6.20;99.90;;;;;;6215707;23;20248;-71
2022/01/20 14:12:03;;;;;;;;;;;6.20;99.90;;;;;;6213739;23;20368;-71
2022/01/20 14:14:29;;;;;;;;;;;6.10;99.90;;;;;;6214441;23;19926;-70
2022/01/20 14:16:55;;;;;;;;;;;6.00;99.90;;;;;;6216156;23;19903;-70
2022/01/20 14:19:22;;;;;;;;;;;6.00;99.90;;;;;;6216211;23;19900;-72
2022/01/20 14:21:48;;;;;;;;;;;6.00;99.90;;;;;;6215044;23;19950;-70
2022/01/20 14:24:14;;;;;;;;;;;6.10;99.90;;;;;;6213719;23;19904;-71
2022/01/20 14:26:44;;;;;;;;;;;6.00;99.90;;;;;;6214752;23;19939;-69
2022/01/20 14:29:10;;;;;;;;;;;6.10;99.90;;;;;;6215908;23;19906;-70
2022/01/20 14:31:36;;;;;;;;;;;6.20;99.90;;;;;;6216209;23;19907;-71
2022/01/20 14:34:01;;;;;;;;;;;6.20;99.90;;;;;;6213521;23;20240;-70
2022/01/20 14:36:27;;;;;;;;;;;6.20;99.90;;;;;;6216328;23;20357;-68
2022/01/20 14:38:53;;;;;;;;;;;6.10;99.90;;;;;;6217124;23;19900;-72
2022/01/20 14:41:18;;;;;;;;;;;6.10;99.90;;;;;;6216490;23;20204;-71
2022/01/20 14:43:44;;;;;;;;;;;6.10;99.90;;;;;;6221101;23;19912;-71
2022/01/20 14:46:10;;;;;;;;;;;6.10;99.90;;;;;;6220407;23;19907;-71
2022/01/20 14:48:39;;;;;;;;;;;6.10;99.90;;;;;;6217443;23;19899;-71
2022/01/20 14:51:08;;;;;;;;;;;6.00;99.90;;;;;;6219524;23;19950;-71
2022/01/20 14:53:34;;;;;;;;;;;6.00;99.90;;;;;;6219031;23;20038;-71
2022/01/20 14:56:00;;;;;;;;;;;6.00;99.90;;;;;;6221250;23;19903;-71
2022/01/20 14:58:26;;;;;;;;;;;6.00;99.90;;;;;;6216888;23;20128;-71
2022/01/20 15:00:52;;;;;;;;;;;6.10;99.90;;;;;;6215697;23;20320;-71
2022/01/20 15:03:20;;;;;;;;;;;6.10;99.90;;;;;;6216582;23;19900;-71
2022/01/20 15:05:47;;;;;;;;;;;6.10;99.90;;;;;;6216311;23;19903;-70
2022/01/20 15:08:13;;;;;;;;;;;6.10;99.90;;;;;;6214508;23;19958;-71
2022/01/20 15:10:45;;;;;;;;;;;6.00;99.90;;;;;;6217747;23;20289;-71
2022/01/20 15:13:13;;;;;;;;;;;5.90;99.90;;;;;;6218390;23;19990;-70
2022/01/20 15:15:39;;;;;;;;;;;5.90;99.90;;;;;;6216837;23;19904;-70
2022/01/20 15:18:04;;;;;;;;;;;5.80;99.90;;;;;;6216777;23;19907;-71
2022/01/20 15:20:30;;;;;;;;;;;5.80;99.90;;;;;;6216164;23;19979;-72
2022/01/20 15:22:55;;;;;;;;;;;5.80;99.90;;;;;;6217279;23;20275;-72
2022/01/20 15:25:21;;;;;;;;;;;5.70;99.90;;;;;;6214848;23;19900;-71
2022/01/20 15:27:46;;;;;;;;;;;5.80;99.90;;;;;;6215419;23;19900;-70
2022/01/20 15:30:12;;;;;;;;;;;5.70;99.90;;;;;;6218122;23;19904;-70
2022/01/20 15:32:44;;;;;;;;;;;5.80;99.90;;;;;;6215976;23;19900;-72
2022/01/20 15:35:12;;;;;;;;;;;5.70;99.90;;;;;;6216279;23;19908;-71
2022/01/20 15:37:38;;;;;;;;;;;5.70;99.90;;;;;;6217114;23;19899;-72
2022/01/20 15:40:13;;;;;;;;;;;5.60;99.90;;;;;;6214423;23;20271;-70